KBAD/BAD METAR and TAF weather

Enter ICAO airport designator
Station Type Date Time Source
KBAD METAR 2021/04/14 18:56 UTC NOAA

KBAD 141856Z 06007KT 10SM OVC006 15/14 A3006 RMK AO2A SLP182 T01520136 $


Station Type Date Time Source
KBAD Decoded METAR 2021/04/14 18:56 UTC NOAA

Barksdale Air Force Base, LA, United States (KBAD) 32-30N 093-40W
Apr 14, 2021 - 02:56 PM EDT / 2021.04.14 1856 UTC
Wind: from the ENE (060 degrees) at 8 MPH (7 KT):0
Visibility: 10 mile(s):0
Sky conditions: overcast
Temperature: 59.4 F (15.2 C)
Dew Point: 56.5 F (13.6 C)
Relative Humidity: 90%
Pressure (altimeter): 30.06 in. Hg (1017 hPa)
ob: KBAD 141856Z 06007KT 10SM OVC006 15/14 A3006 RMK AO2A SLP182 T01520136
cycle: 19

Station Type Date Time Source
KBAD TAF 2021/04/14 18:06 UTC NOAA

TAF KBAD 141800Z 1418/1524 04009KT 9999 OVC005 QNH2997INS
TEMPO 1418/1422 OVC007
BECMG 1511/1512 06007KT 9999 BKN015 OVC180 QNH3001INS
BECMG 1514/1515 07008KT 9999 SCT035 OVC150 QNH2990INS TX15/1418Z TN09/1512Z

Example: see airport list